Time;durP1;ratioP1;P1;durP2;ratioP2;P2;SDS_P1;SDS_P2;PMS_P1;PMS_P2;Temp;Humidity;BMP_temperature;BMP_pressure;BME280_temperature;BME280_humidity;BME280_pressure;Samples;Min_cycle;Max_cycle;Signal;HPM_P1;HPM_P2
2022/07/13 00:00:41;;;;;;;0.20;0.20;;;19.70;99.90;;;;;;4966012;28;20374;-75
2022/07/13 00:03:08;;;;;;;;;;;19.60;99.90;;;;;;4957124;28;20039;-75
2022/07/13 00:05:33;;;;;;;0.30;0.30;;;19.60;99.90;;;;;;4954099;28;19968;-75
2022/07/13 00:07:59;;;;;;;;;;;19.60;99.90;;;;;;4951570;28;20082;-74
2022/07/13 00:10:25;;;;;;;0.30;0.30;;;19.60;99.90;;;;;;4961199;28;19922;-75
2022/07/13 00:12:50;;;;;;;;;;;19.60;99.90;;;;;;4955217;28;20057;-76
2022/07/13 00:15:16;;;;;;;0.30;0.30;;;19.70;99.90;;;;;;4963465;28;19922;-75
2022/07/13 00:17:41;;;;;;;;;;;19.70;99.90;;;;;;4962841;28;20534;-75
2022/07/13 00:20:08;;;;;;;0.25;0.25;;;19.70;99.90;;;;;;4968029;28;20367;-76
2022/07/13 00:22:35;;;;;;;0.52;0.52;;;19.70;99.90;;;;;;4948396;28;20528;-75
2022/07/13 00:25:01;;;;;;;0.20;0.20;;;19.70;99.90;;;;;;4959014;28;20096;-76
2022/07/13 00:27:26;;;;;;;0.20;0.20;;;19.80;99.90;;;;;;4950638;28;20496;-76
2022/07/13 00:29:52;;;;;;;0.20;0.20;;;19.80;99.90;;;;;;5018213;28;20043;-75
2022/07/13 00:32:17;;;;;;;;;;;19.90;99.90;;;;;;4950215;28;20354;-75
2022/07/13 00:34:43;;;;;;;0.30;0.30;;;19.90;99.90;;;;;;4951895;28;19941;-75
2022/07/13 00:37:09;;;;;;;;;;;20.00;99.90;;;;;;4944257;28;20104;-75
2022/07/13 00:39:34;;;;;;;0.38;0.38;;;20.00;99.90;;;;;;4972920;28;19918;-76
2022/07/13 00:42:00;;;;;;;;;;;20.00;99.90;;;;;;4956789;28;20057;-76
2022/07/13 00:44:25;;;;;;;0.30;0.30;;;20.10;99.90;;;;;;4955718;28;19965;-75
2022/07/13 00:46:54;;;;;;;;;;;20.10;99.90;;;;;;4945832;28;20058;-75
2022/07/13 00:49:22;;;;;;;0.20;0.20;;;20.10;99.90;;;;;;4957351;28;20149;-75
2022/07/13 00:51:49;;;;;;;0.20;0.20;;;20.10;99.90;;;;;;4954642;28;20109;-75
2022/07/13 00:54:18;;;;;;;0.50;0.30;;;20.10;99.90;;;;;;4962943;28;20050;-75
2022/07/13 00:56:44;;;;;;;0.20;0.20;;;20.10;99.90;;;;;;4955247;28;20402;-76
2022/07/13 00:59:10;;;;;;;0.20;0.20;;;20.20;99.90;;;;;;4965202;28;20034;-75
2022/07/13 01:01:37;;;;;;;;;;;20.20;99.90;;;;;;4973032;28;20057;-75
2022/07/13 01:04:03;;;;;;;0.30;0.30;;;20.20;99.90;;;;;;4946258;29;19925;-76
2022/07/13 01:06:31;;;;;;;0.25;0.22;;;20.30;99.90;;;;;;4953838;28;20110;-75
2022/07/13 01:08:57;;;;;;;0.22;0.22;;;20.30;99.90;;;;;;4953505;28;20150;-75
2022/07/13 01:11:31;;;;;;;0.30;0.30;;;20.30;99.90;;;;;;4948635;28;20089;-75
2022/07/13 01:14:04;;;;;;;0.38;0.38;;;20.30;99.90;;;;;;4954403;28;20430;-76
2022/07/13 01:16:30;;;;;;;0.40;0.40;;;20.40;99.90;;;;;;4962329;28;20454;-75
2022/07/13 01:19:04;;;;;;;0.40;0.40;;;20.30;99.90;;;;;;4950867;28;20385;-75
2022/07/13 01:21:29;;;;;;;0.50;0.50;;;20.40;99.90;;;;;;4953159;28;20504;-76
2022/07/13 01:23:55;;;;;;;0.20;0.20;;;20.40;99.90;;;;;;4954992;28;20046;-75
2022/07/13 01:26:21;;;;;;;0.30;0.30;;;20.40;99.90;;;;;;4953755;28;20085;-75
2022/07/13 01:28:48;;;;;;;0.35;0.30;;;20.40;99.90;;;;;;4953320;28;20126;-76
2022/07/13 01:31:34;;;;;;;0.43;0.43;;;20.30;99.90;;;;;;4935225;28;20126;-76
2022/07/13 01:34:00;;;;;;;0.60;0.60;;;20.40;99.90;;;;;;4950940;28;20051;-76
2022/07/13 01:36:26;;;;;;;0.20;0.20;;;20.40;99.90;;;;;;4955828;28;20036;-76
2022/07/13 01:38:52;;;;;;;0.30;0.30;;;20.40;99.90;;;;;;4934814;28;20035;-76
2022/07/13 01:41:19;;;;;;;0.10;0.10;;;20.40;99.90;;;;;;4955659;28;20039;-75
2022/07/13 01:43:46;;;;;;;0.20;0.20;;;20.40;99.90;;;;;;4949840;28;20047;-75
2022/07/13 01:46:11;;;;;;;0.40;0.40;;;20.40;99.90;;;;;;4946468;28;20061;-76
2022/07/13 01:48:37;;;;;;;0.30;0.30;;;20.40;99.90;;;;;;4964041;28;20047;-74
2022/07/13 01:51:03;;;;;;;0.20;0.20;;;20.40;99.90;;;;;;4969457;28;20042;-75
2022/07/13 01:53:29;;;;;;;0.40;0.40;;;20.40;99.90;;;;;;4938475;28;20112;-76
2022/07/13 01:55:54;;;;;;;0.17;0.17;;;20.50;99.90;;;;;;4963020;28;20047;-76
2022/07/13 01:58:23;;;;;;;0.30;0.30;;;20.40;99.90;;;;;;4960536;28;20120;-76
2022/07/13 02:00:49;;;;;;;0.35;0.35;;;20.40;99.90;;;;;;4974506;28;20417;-76
2022/07/13 02:03:14;;;;;;;;;;;20.40;99.90;;;;;;4933392;28;20035;-75
2022/07/13 02:05:40;;;;;;;0.20;0.20;;;20.40;99.90;;;;;;4960893;28;20512;-76
2022/07/13 02:08:06;;;;;;;0.30;0.30;;;20.40;99.90;;;;;;4949657;28;20112;-76
2022/07/13 02:10:35;;;;;;;0.28;0.28;;;20.40;99.90;;;;;;4943940;28;20072;-77
2022/07/13 02:13:08;;;;;;;0.30;0.30;;;20.30;99.90;;;;;;4960193;28;20042;-75
2022/07/13 02:15:35;;;;;;;0.20;0.20;;;20.40;99.90;;;;;;4961261;28;20127;-75
2022/07/13 02:18:07;;;;;;;0.30;0.30;;;20.40;99.90;;;;;;4960028;28;20047;-76
2022/07/13 02:20:34;;;;;;;0.47;0.47;;;20.30;99.90;;;;;;4963781;28;20043;-75
2022/07/13 02:23:00;;;;;;;0.22;0.22;;;20.40;99.90;;;;;;4943735;28;20042;-75
2022/07/13 02:25:37;;;;;;;1.38;1.38;;;20.40;99.90;;;;;;4939804;28;20408;-75
2022/07/13 02:28:04;;;;;;;0.75;0.75;;;20.40;99.90;;;;;;4951735;28;20491;-76
2022/07/13 02:30:30;;;;;;;0.45;0.45;;;20.40;99.90;;;;;;4962148;28;20051;-75
2022/07/13 02:32:57;;;;;;;0.43;0.43;;;20.40;99.90;;;;;;4960531;28;20115;-75
2022/07/13 02:35:24;;;;;;;0.55;0.52;;;20.50;99.90;;;;;;4959929;28;20101;-75
2022/07/13 02:37:50;;;;;;;0.50;0.50;;;20.50;99.90;;;;;;5035759;28;20049;-75
2022/07/13 02:40:16;;;;;;;0.35;0.32;;;20.60;99.90;;;;;;4962915;28;20043;-75
2022/07/13 02:42:42;;;;;;;;;;;20.50;99.90;;;;;;4954595;28;20081;-74
2022/07/13 02:45:08;;;;;;;0.22;0.22;;;20.50;99.90;;;;;;4968014;28;19922;-76
2022/07/13 02:47:34;;;;;;;0.47;0.47;;;20.50;99.90;;;;;;4971091;28;20450;-76
2022/07/13 02:50:00;;;;;;;;;;;20.50;99.90;;;;;;4949235;28;20436;-75
2022/07/13 02:52:25;;;;;;;1.17;1.17;;;20.50;99.90;;;;;;4971234;28;19922;-74
2022/07/13 02:54:51;;;;;;;0.55;0.50;;;20.50;99.90;;;;;;4954023;28;20051;-75
2022/07/13 02:57:17;;;;;;;0.45;0.45;;;20.40;99.90;;;;;;4942135;28;20495;-76
2022/07/13 02:59:43;;;;;;;0.30;0.30;;;20.40;99.90;;;;;;4961781;28;20059;-75
2022/07/13 03:02:09;;;;;;;0.40;0.40;;;20.40;99.90;;;;;;4962386;28;20046;-74
2022/07/13 03:04:34;;;;;;;;;;;20.30;99.90;;;;;;4950731;28;20039;-74
2022/07/13 03:07:01;;;;;;;1.00;0.40;;;20.30;99.90;;;;;;4957767;28;19960;-75
2022/07/13 03:09:27;;;;;;;0.60;0.60;;;20.30;99.90;;;;;;4956275;28;20074;-76
2022/07/13 03:11:53;;;;;;;0.50;0.50;;;20.30;99.90;;;;;;4953125;28;20050;-75
2022/07/13 03:14:19;;;;;;;0.40;0.40;;;20.30;99.90;;;;;;4954218;28;20435;-75
2022/07/13 03:16:44;;;;;;;1.85;0.57;;;20.30;99.90;;;;;;4964794;28;20145;-75
2022/07/13 03:19:10;;;;;;;;;;;20.30;99.90;;;;;;4955610;28;20400;-75
2022/07/13 03:21:36;;;;;;;0.63;0.63;;;20.30;99.90;;;;;;4953846;28;19975;-75
2022/07/13 03:24:02;;;;;;;0.35;0.35;;;20.30;99.90;;;;;;4954533;28;20054;-75
2022/07/13 03:26:29;;;;;;;0.35;0.35;;;20.30;99.90;;;;;;4952529;28;20057;-75
2022/07/13 03:28:55;;;;;;;0.28;0.28;;;20.20;99.90;;;;;;4957632;28;20051;-75
2022/07/13 03:31:26;;;;;;;0.40;0.40;;;20.20;99.90;;;;;;4957877;28;20069;-75
2022/07/13 03:33:54;;;;;;;0.20;0.20;;;20.20;99.90;;;;;;4938022;28;20051;-75
2022/07/13 03:36:25;;;;;;;0.30;0.30;;;20.20;99.90;;;;;;4964065;28;20039;-75
2022/07/13 03:38:51;;;;;;;0.30;0.30;;;20.10;99.90;;;;;;4960143;28;20205;-75
2022/07/13 03:41:17;;;;;;;0.30;0.30;;;20.10;99.90;;;;;;4933910;28;20467;-77
2022/07/13 03:43:43;;;;;;;0.30;0.30;;;20.10;99.90;;;;;;4955651;28;20115;-75
2022/07/13 03:46:09;;;;;;;0.60;0.60;;;20.10;99.90;;;;;;4955361;28;20289;-75
2022/07/13 03:48:35;;;;;;;;;;;20.10;99.90;;;;;;4964474;28;20039;-76
2022/07/13 03:51:00;;;;;;;0.40;0.40;;;20.10;99.90;;;;;;4954148;28;19933;-76
2022/07/13 03:53:32;;;;;;;0.75;0.75;;;20.10;99.90;;;;;;4951023;28;20054;-76
2022/07/13 03:55:58;;;;;;;0.32;0.32;;;20.10;99.90;;;;;;4962933;28;20038;-75
2022/07/13 03:58:24;;;;;;;0.60;0.60;;;20.10;99.90;;;;;;4973464;28;20488;-75
2022/07/13 04:00:49;;;;;;;0.40;0.40;;;20.10;99.90;;;;;;4936261;29;20054;-76
2022/07/13 04:03:15;;;;;;;0.43;0.28;;;20.10;99.90;;;;;;4941748;28;20108;-75
2022/07/13 04:05:41;;;;;;;;;;;20.20;99.90;;;;;;4956738;28;20496;-75
2022/07/13 04:08:07;;;;;;;0.73;0.73;;;20.20;99.90;;;;;;4957762;28;19929;-76
2022/07/13 04:10:35;;;;;;;0.43;0.43;;;20.20;99.90;;;;;;4962319;28;20093;-75
2022/07/13 04:13:01;;;;;;;0.65;0.65;;;20.20;99.90;;;;;;4954445;28;21568;-75
2022/07/13 04:15:26;;;;;;;;;;;20.20;99.90;;;;;;4963775;28;20042;-74
2022/07/13 04:17:52;;;;;;;0.40;0.40;;;20.20;99.90;;;;;;4962410;28;19929;-74
2022/07/13 04:20:19;;;;;;;;;;;20.20;99.90;;;;;;4958749;28;20074;-75
2022/07/13 04:22:44;;;;;;;0.35;0.35;;;20.20;99.90;;;;;;4954721;28;19925;-75
2022/07/13 04:25:11;;;;;;;0.63;0.60;;;20.20;99.90;;;;;;4951374;28;20048;-75
2022/07/13 04:27:38;;;;;;;0.40;0.40;;;20.20;99.90;;;;;;4957548;28;20043;-75
2022/07/13 04:30:04;;;;;;;0.40;0.40;;;20.20;99.90;;;;;;4938853;28;20043;-75
2022/07/13 04:32:33;;;;;;;0.30;0.30;;;20.20;99.90;;;;;;4952309;28;20043;-74
2022/07/13 04:34:58;;;;;;;0.63;0.40;;;20.20;99.90;;;;;;4952953;28;20039;-75
2022/07/13 04:37:24;;;;;;;1.95;1.05;;;20.20;99.90;;;;;;4962307;28;20051;-74
2022/07/13 04:39:51;;;;;;;1.05;1.05;;;20.30;99.90;;;;;;4952048;28;20075;-76
2022/07/13 04:42:22;;;;;;;0.65;0.65;;;20.40;99.90;;;;;;4935933;28;20610;-75
2022/07/13 04:44:49;;;;;;;0.47;0.47;;;20.40;99.90;;;;;;4956473;28;20118;-76
2022/07/13 04:47:15;;;;;;;1.25;0.73;;;20.40;99.90;;;;;;4962680;28;20047;-75
2022/07/13 04:49:41;;;;;;;0.82;0.40;;;20.40;99.90;;;;;;4962421;28;20050;-76
2022/07/13 04:52:06;;;;;;;;;;;20.50;99.90;;;;;;4968216;28;20046;-76
2022/07/13 04:54:33;;;;;;;0.30;0.30;;;20.50;99.90;;;;;;4955580;28;20016;-76
2022/07/13 04:56:59;;;;;;;0.30;0.30;;;20.50;99.90;;;;;;4961354;28;20155;-77
2022/07/13 04:59:25;;;;;;;1.85;0.63;;;20.50;99.90;;;;;;4961100;28;20403;-75
2022/07/13 05:01:50;;;;;;;;;;;20.60;99.90;;;;;;4973598;28;20385;-75
2022/07/13 05:04:16;;;;;;;0.32;0.32;;;20.50;99.90;;;;;;4960569;28;19922;-76
2022/07/13 05:06:48;;;;;;;0.50;0.50;;;20.50;99.90;;;;;;4949206;28;20128;-75
2022/07/13 05:09:14;;;;;;;0.60;0.32;;;20.50;99.90;;;;;;4937018;28;20496;-75
2022/07/13 05:11:39;;;;;;;1.17;0.77;;;20.50;99.90;;;;;;4953569;28;20137;-75
2022/07/13 05:14:05;;;;;;;;;;;20.50;99.90;;;;;;4955388;28;20366;-75
2022/07/13 05:16:31;;;;;;;0.50;0.50;;;20.50;99.90;;;;;;4956205;28;19967;-76
2022/07/13 05:18:57;;;;;;;0.45;0.45;;;20.40;99.90;;;;;;4970858;28;20039;-82
2022/07/13 05:21:23;;;;;;;0.30;0.30;;;20.40;99.90;;;;;;4952356;28;20188;-75
2022/07/13 05:23:49;;;;;;;0.65;0.52;;;20.40;99.90;;;;;;4955208;28;20118;-76
2022/07/13 05:26:14;;;;;;;;;;;20.50;99.90;;;;;;4960715;28;20063;-75
2022/07/13 05:28:41;;;;;;;0.45;0.45;;;20.50;99.90;;;;;;4967222;28;19999;-74
2022/07/13 05:31:08;;;;;;;0.40;0.40;;;20.50;99.90;;;;;;4957237;28;20048;-75
2022/07/13 05:33:33;;;;;;;1.42;1.23;;;20.50;99.90;;;;;;4960283;28;20118;-77
2022/07/13 05:36:04;;;;;;;0.65;0.45;;;20.50;99.90;;;;;;4962373;28;20168;-74
2022/07/13 05:38:29;;;;;;;0.35;0.35;;;20.50;99.90;;;;;;4954350;28;20055;-74
2022/07/13 05:40:56;;;;;;;0.70;0.70;;;20.50;99.90;;;;;;4962097;28;20051;-75
2022/07/13 05:43:21;;;;;;;1.20;0.50;;;20.50;99.90;;;;;;4957056;28;20054;-74
2022/07/13 05:45:47;;;;;;;;;;;20.50;99.90;;;;;;4939504;28;20075;-75
2022/07/13 05:48:31;;;;;;;0.43;0.43;;;20.50;99.90;;;;;;4957748;28;19924;-76
2022/07/13 05:50:57;;;;;;;0.20;0.20;;;20.50;99.90;;;;;;4958645;28;20043;-75
2022/07/13 05:53:23;;;;;;;0.82;0.82;;;20.50;99.90;;;;;;4951661;28;20047;-75
2022/07/13 05:55:49;;;;;;;0.38;0.38;;;20.50;99.90;;;;;;4951079;28;20042;-75
2022/07/13 05:58:15;;;;;;;0.40;0.40;;;20.60;99.90;;;;;;4962681;28;20528;-75
2022/07/13 06:00:40;;;;;;;2.05;1.17;;;20.60;99.90;;;;;;4969349;28;20078;-75
2022/07/13 06:03:06;;;;;;;0.57;0.57;;;20.60;99.90;;;;;;4944527;28;20050;-76
2022/07/13 06:05:32;;;;;;;;;;;20.70;99.90;;;;;;4956886;28;20130;-74
2022/07/13 06:08:00;;;;;;;0.75;0.75;;;20.70;99.90;;;;;;4961042;28;19922;-75
2022/07/13 06:10:26;;;;;;;1.05;0.98;;;20.80;99.90;;;;;;4964184;28;20042;-76
2022/07/13 06:12:58;;;;;;;0.40;0.40;;;20.80;99.90;;;;;;4944962;28;20117;-74
2022/07/13 06:15:23;;;;;;;0.30;0.30;;;20.80;99.90;;;;;;4965565;28;20423;-75
2022/07/13 06:17:50;;;;;;;1.80;1.70;;;20.90;99.90;;;;;;4959163;28;20055;-75
2022/07/13 06:20:15;;;;;;;0.60;0.60;;;21.00;99.90;;;;;;4961499;28;20062;-74
2022/07/13 06:22:41;;;;;;;0.68;0.65;;;21.10;99.90;;;;;;4965193;28;20054;-75
2022/07/13 06:25:07;;;;;;;0.40;0.40;;;21.20;99.90;;;;;;4963440;28;20027;-76
2022/07/13 06:27:33;;;;;;;0.60;0.60;;;21.20;99.90;;;;;;4959043;28;20134;-74
2022/07/13 06:29:59;;;;;;;4.47;1.75;;;21.30;99.90;;;;;;4954619;28;20039;-75
2022/07/13 06:32:27;;;;;;;1.20;0.70;;;21.40;99.90;;;;;;4955687;28;20035;-76
2022/07/13 06:34:54;;;;;;;1.63;1.48;;;21.50;99.90;;;;;;4950504;28;20045;-75
2022/07/13 06:37:19;;;;;;;0.45;0.45;;;21.50;99.90;;;;;;5025025;28;20118;-75
2022/07/13 06:39:45;;;;;;;0.52;0.52;;;21.50;99.90;;;;;;4959697;28;20123;-73
2022/07/13 06:42:10;;;;;;;1.05;0.95;;;21.50;99.90;;;;;;4962407;28;20062;-74
2022/07/13 06:44:36;;;;;;;;;;;21.40;99.90;;;;;;4938509;28;20492;-74
2022/07/13 06:47:02;;;;;;;0.52;0.52;;;21.40;99.90;;;;;;4957579;28;19922;-74
2022/07/13 06:49:27;;;;;;;0.88;0.88;;;21.30;99.90;;;;;;4955972;28;20101;-74
2022/07/13 06:51:55;;;;;;;1.08;0.75;;;21.20;99.90;;;;;;4957378;28;20105;-73
2022/07/13 06:54:21;;;;;;;0.70;0.70;;;21.20;99.90;;;;;;4967974;28;20042;-74
2022/07/13 06:56:46;;;;;;;0.57;0.57;;;21.30;99.90;;;;;;4967828;28;20093;-74
2022/07/13 06:59:12;;;;;;;0.35;0.35;;;21.40;99.90;;;;;;4969304;28;20384;-74
2022/07/13 07:01:39;;;;;;;0.73;0.73;;;21.50;99.90;;;;;;4963621;28;20040;-75
2022/07/13 07:04:04;;;;;;;0.32;0.32;;;21.60;99.90;;;;;;4956780;28;20058;-75
2022/07/13 07:06:30;;;;;;;0.65;0.65;;;21.80;99.90;;;;;;4959852;28;20477;-73
2022/07/13 07:08:58;;;;;;;0.40;0.40;;;21.80;99.90;;;;;;4969752;28;20134;-74
2022/07/13 07:11:24;;;;;;;0.32;0.30;;;22.00;99.90;;;;;;4946424;28;20051;-73
2022/07/13 07:13:52;;;;;;;0.85;0.77;;;22.10;99.90;;;;;;4944135;28;20031;-74
2022/07/13 07:16:18;;;;;;;0.80;0.80;;;22.20;99.90;;;;;;4959078;28;20054;-74
2022/07/13 07:18:44;;;;;;;0.70;0.70;;;22.30;99.90;;;;;;4969120;28;20046;-75
2022/07/13 07:21:09;;;;;;;1.52;0.98;;;22.30;99.90;;;;;;4962696;28;20048;-75
2022/07/13 07:23:35;;;;;;;0.60;0.60;;;22.30;99.90;;;;;;4963819;28;20069;-74
2022/07/13 07:26:04;;;;;;;0.68;0.68;;;22.30;99.90;;;;;;4960017;28;20039;-74
2022/07/13 07:28:30;;;;;;;0.90;0.90;;;22.30;99.90;;;;;;4963071;28;20093;-74
2022/07/13 07:30:55;;;;;;;1.15;1.05;;;22.30;99.90;;;;;;4955028;28;20047;-75
2022/07/13 07:33:21;;;;;;;0.40;0.40;;;22.40;99.90;;;;;;4962353;28;20118;-74
2022/07/13 07:35:52;;;;;;;0.70;0.30;;;22.50;99.90;;;;;;4961789;28;20076;-74
2022/07/13 07:38:18;;;;;;;1.00;1.00;;;22.50;99.90;;;;;;4962480;28;20074;-74
2022/07/13 07:40:44;;;;;;;0.32;0.32;;;22.50;99.90;;;;;;4958102;28;20047;-74
2022/07/13 07:43:09;;;;;;;0.30;0.30;;;22.60;99.90;;;;;;4957716;28;20490;-74
2022/07/13 07:45:38;;;;;;;0.85;0.52;;;22.60;99.90;;;;;;4960905;28;20043;-75
2022/07/13 07:48:04;;;;;;;1.55;1.42;;;22.70;99.90;;;;;;4963564;28;20043;-75
2022/07/13 07:50:29;;;;;;;0.55;0.40;;;22.70;99.90;;;;;;4962877;28;20045;-74
2022/07/13 07:52:55;;;;;;;1.02;0.93;;;22.90;99.90;;;;;;4953868;28;20039;-76
2022/07/13 07:55:21;;;;;;;0.77;0.75;;;23.10;99.90;;;;;;4961689;28;20043;-74
2022/07/13 07:57:48;;;;;;;1.08;0.80;;;23.20;99.90;;;;;;4957394;28;20043;-75
2022/07/13 08:00:14;;;;;;;0.52;0.43;;;23.20;99.90;;;;;;4960257;28;20116;-74
2022/07/13 08:02:43;;;;;;;1.60;1.13;;;23.30;99.90;;;;;;4958712;28;20492;-73
2022/07/13 08:05:09;;;;;;;1.75;1.42;;;23.30;99.90;;;;;;4955633;28;20035;-74
2022/07/13 08:07:42;;;;;;;1.58;1.15;;;23.30;99.90;;;;;;4963046;28;20091;-74
2022/07/13 08:10:08;;;;;;;1.33;1.23;;;23.30;99.90;;;;;;4955976;28;20130;-74
2022/07/13 08:12:34;;;;;;;1.15;1.10;;;23.20;99.90;;;;;;4955068;28;20065;-74
2022/07/13 08:15:00;;;;;;;0.70;0.70;;;23.20;99.90;;;;;;4957910;28;20042;-74
2022/07/13 08:17:31;;;;;;;1.02;0.68;;;23.30;99.90;;;;;;5000356;28;20048;-75
2022/07/13 08:20:00;;;;;;;0.30;0.30;;;23.40;99.90;;;;;;4974233;28;20039;-74
2022/07/13 08:22:26;;;;;;;0.68;0.65;;;23.40;99.90;;;;;;5001109;28;20170;-74
2022/07/13 08:24:52;;;;;;;0.40;0.40;;;23.40;99.90;;;;;;4969751;28;20043;-74
2022/07/13 08:27:17;;;;;;;1.10;0.95;;;23.40;99.90;;;;;;4966025;28;20199;-75
2022/07/13 08:29:43;;;;;;;0.63;0.43;;;23.40;99.90;;;;;;4966974;28;20061;-73
2022/07/13 08:32:09;;;;;;;0.68;0.60;;;23.50;99.90;;;;;;4969360;28;20121;-74
2022/07/13 08:40:10;;;;;;;0.47;0.47;;;23.90;99.90;;;;;;4959788;28;20047;-75
2022/07/13 08:42:37;;;;;;;0.50;0.45;;;24.00;99.90;;;;;;4951535;28;20050;-75
2022/07/13 08:45:04;;;;;;;1.10;1.00;;;24.00;99.90;;;;;;4951157;28;20121;-74
2022/07/13 08:47:30;;;;;;;0.40;0.40;;;24.10;99.90;;;;;;4950535;28;20050;-75
2022/07/13 08:50:06;;;;;;;0.60;0.60;;;24.20;99.90;;;;;;4953356;28;20492;-76
2022/07/13 08:52:34;;;;;;;2.20;0.73;;;;;;;;;;4950682;28;20447;-76
2022/07/13 08:55:00;;;;;;;0.38;0.38;;;24.30;99.90;;;;;;4951117;28;20039;-74
2022/07/13 08:57:27;;;;;;;0.38;0.38;;;24.40;99.90;;;;;;4954333;28;20599;-74
2022/07/13 08:59:53;;;;;;;0.85;0.80;;;24.50;99.90;;;;;;4950218;28;20094;-74
2022/07/13 09:02:19;;;;;;;0.98;0.63;;;24.60;99.90;;;;;;4964360;28;20085;-75
2022/07/13 09:04:46;;;;;;;0.32;0.32;;;24.60;99.90;;;;;;4956571;28;20031;-73
2022/07/13 09:07:12;;;;;;;1.02;0.85;;;24.60;99.90;;;;;;4956522;28;20176;-75
2022/07/13 09:09:38;;;;;;;0.75;0.75;;;24.60;99.90;;;;;;4951861;28;20142;-73
2022/07/13 09:12:25;;;;;;;0.20;0.20;;;24.70;99.90;;;;;;4957190;28;20531;-74
2022/07/13 09:14:57;;;;;;;0.28;0.28;;;24.70;99.90;;;;;;4964681;28;20035;-73
2022/07/13 09:17:33;;;;;;;0.40;0.40;;;24.90;99.90;;;;;;4957140;28;20043;-73
2022/07/13 09:20:04;;;;;;;0.30;0.30;;;25.00;99.90;;;;;;4955805;28;20054;-73
2022/07/13 09:22:30;;;;;;;0.30;0.30;;;25.00;99.90;;;;;;4953796;28;20051;-73
2022/07/13 09:24:57;;;;;;;0.63;0.63;;;25.10;99.90;;;;;;4958847;28;20042;-74
2022/07/13 09:27:23;;;;;;;0.45;0.45;;;25.10;99.90;;;;;;4959973;28;20112;-74
2022/07/13 09:29:49;;;;;;;1.00;0.93;;;25.20;99.90;;;;;;4960945;28;20118;-73
2022/07/13 09:32:15;;;;;;;0.55;0.30;;;25.20;99.90;;;;;;4943936;28;20719;-74
2022/07/13 09:34:45;;;;;;;0.30;0.30;;;25.30;99.90;;;;;;4942864;28;20041;-73
2022/07/13 09:37:12;;;;;;;0.30;0.30;;;25.30;99.90;;;;;;4949670;28;20078;-74
2022/07/13 09:40:06;;;;;;;0.68;0.68;;;25.40;99.90;;;;;;4962152;28;20510;-72
2022/07/13 09:42:37;;;;;;;0.20;0.20;;;25.40;99.90;;;;;;4959125;28;20119;-74
2022/07/13 09:47:56;;;;;;;1.55;0.63;;;25.50;99.90;;;;;;4965347;28;20047;-74
2022/07/13 09:50:37;;;;;;;0.25;0.25;;;25.50;99.90;;;;;;4961385;28;20081;-75
2022/07/13 09:53:22;;;;;;;0.35;0.35;;;25.60;99.90;;;;;;4965051;28;20082;-75
2022/07/13 09:55:50;;;;;;;3.60;0.88;;;25.60;99.90;;;;;;4959482;28;20051;-73
2022/07/13 09:58:26;;;;;;;0.75;0.75;;;25.50;99.90;;;;;;4953043;28;20108;-72
2022/07/13 10:00:54;;;;;;;1.30;0.57;;;25.60;99.90;;;;;;4941617;28;20048;-75
2022/07/13 10:03:21;;;;;;;2.58;1.27;;;25.60;99.90;;;;;;4957828;28;20504;-73
2022/07/13 10:05:47;;;;;;;0.17;0.17;;;25.50;99.90;;;;;;4959720;28;20043;-73
2022/07/13 10:08:16;;;;;;;0.85;0.85;;;25.60;99.90;;;;;;4956563;28;20416;-74
2022/07/13 10:10:42;;;;;;;0.20;0.20;;;25.60;99.90;;;;;;4972814;28;20456;-73
2022/07/13 10:13:09;;;;;;;0.40;0.40;;;25.70;99.90;;;;;;4956857;28;20051;-74
2022/07/13 10:15:36;;;;;;;0.20;0.20;;;25.60;99.90;;;;;;4969872;28;20039;-73
2022/07/13 10:18:04;;;;;;;0.60;0.50;;;25.70;99.90;;;;;;4948625;28;20050;-74
2022/07/13 10:20:30;;;;;;;0.50;0.50;;;25.70;99.90;;;;;;4958122;28;20079;-74
2022/07/13 10:22:57;;;;;;;0.20;0.20;;;25.70;99.90;;;;;;4930285;29;20043;-73
2022/07/13 10:25:24;;;;;;;0.70;0.70;;;25.70;99.90;;;;;;4944308;28;20043;-73
2022/07/13 10:28:04;;;;;;;1.55;1.20;;;25.60;99.90;;;;;;4956204;28;20503;-73
2022/07/13 10:30:30;;;;;;;0.60;0.45;;;25.60;99.90;;;;;;4961501;28;20489;-75
2022/07/13 10:33:24;;;;;;;0.43;0.40;;;25.70;99.90;;;;;;4962566;28;20488;-75
2022/07/13 10:35:55;;;;;;;0.20;0.20;;;25.80;99.90;;;;;;4942554;28;20046;-75
2022/07/13 10:38:29;;;;;;;0.65;0.65;;;25.90;99.90;;;;;;4924485;28;20058;-74
2022/07/13 10:41:19;;;;;;;0.30;0.30;;;25.90;99.90;;;;;;4963682;28;20042;-74
2022/07/13 10:43:53;;;;;;;0.70;0.70;;;26.00;99.90;;;;;;4965444;28;20055;-75
2022/07/13 10:46:44;;;;;;;0.88;0.70;;;26.10;99.90;;;;;;4960491;28;20073;-75
2022/07/13 10:49:37;;;;;;;0.15;0.15;;;26.10;99.90;;;;;;4979599;28;20044;-75
2022/07/13 10:52:21;;;;;;;0.25;0.25;;;26.00;98.20;;;;;;4980114;28;20118;-74
2022/07/13 10:55:09;;;;;;;0.28;0.28;;;26.10;99.40;;;;;;4963795;28;20100;-75
2022/07/13 10:57:37;;;;;;;0.40;0.40;;;26.10;98.30;;;;;;4965459;28;20055;-75
2022/07/13 11:00:23;;;;;;;0.40;0.40;;;26.00;97.70;;;;;;5034593;28;20135;-74
2022/07/13 11:03:02;;;;;;;0.20;0.20;;;26.00;99.20;;;;;;4959610;28;20798;-74
2022/07/13 11:05:34;;;;;;;0.47;0.30;;;26.10;97.00;;;;;;4960532;28;20302;-75
2022/07/13 11:08:13;;;;;;;0.47;0.47;;;26.00;96.50;;;;;;4946761;28;20059;-74
2022/07/13 11:10:39;;;;;;;3.22;0.90;;;26.00;98.00;;;;;;4969673;28;20046;-75
2022/07/13 11:13:12;;;;;;;0.45;0.35;;;26.00;98.00;;;;;;4969431;28;20069;-75
2022/07/13 11:15:58;;;;;;;0.77;0.47;;;26.00;98.10;;;;;;4963952;28;20464;-75
2022/07/13 11:18:30;;;;;;;0.22;0.22;;;25.80;97.70;;;;;;4976021;28;20068;-74
2022/07/13 11:20:57;;;;;;;0.30;0.30;;;25.90;96.80;;;;;;4963547;28;20051;-72
2022/07/13 11:26:23;;;;;;;0.20;0.20;;;26.00;96.90;;;;;;4960921;28;20100;-74
2022/07/13 11:29:01;;;;;;;0.35;0.35;;;26.10;98.00;;;;;;4958945;28;20054;-75
2022/07/13 11:31:27;;;;;;;0.20;0.20;;;26.30;99.40;;;;;;4949842;28;20050;-73
2022/07/13 11:33:53;;;;;;;0.15;0.15;;;26.30;99.50;;;;;;4961649;28;20114;-74
2022/07/13 11:36:26;;;;;;;0.32;0.32;;;26.20;99.50;;;;;;4975791;28;20099;-75
2022/07/13 11:38:52;;;;;;;0.20;0.20;;;26.10;98.80;;;;;;4974132;28;20126;-74
2022/07/13 11:41:23;;;;;;;0.35;0.35;;;26.00;99.40;;;;;;4964821;28;20092;-73
2022/07/13 11:43:50;;;;;;;0.43;0.43;;;26.00;99.90;;;;;;4957517;28;20036;-74
2022/07/13 11:46:28;;;;;;;0.40;0.40;;;26.00;99.90;;;;;;4957409;28;20396;-75
2022/07/13 11:48:59;;;;;;;0.20;0.20;;;25.90;99.90;;;;;;4970395;28;20399;-73
2022/07/13 11:51:25;;;;;;;1.33;1.23;;;25.80;99.90;;;;;;4965828;28;20035;-75
2022/07/13 11:53:51;;;;;;;0.95;0.95;;;25.90;99.90;;;;;;4948457;28;20043;-74
2022/07/13 11:56:18;;;;;;;0.85;0.85;;;26.00;99.90;;;;;;4969093;28;20074;-74
2022/07/13 11:58:47;;;;;;;0.20;0.20;;;25.90;99.90;;;;;;4963346;28;20054;-74
2022/07/13 12:01:18;;;;;;;0.32;0.30;;;25.80;99.90;;;;;;4977648;28;20054;-75
2022/07/13 12:03:51;;;;;;;0.25;0.25;;;25.50;99.90;;;;;;4953465;28;20178;-73
2022/07/13 12:06:18;;;;;;;0.20;0.20;;;25.40;99.90;;;;;;4958265;28;20100;-74
2022/07/13 12:08:45;;;;;;;0.98;0.88;;;25.50;99.90;;;;;;5021113;28;20055;-74
2022/07/13 12:11:15;;;;;;;0.22;0.22;;;25.70;99.90;;;;;;4949871;28;20062;-76
2022/07/13 12:13:42;;;;;;;0.93;0.93;;;25.90;99.90;;;;;;4953601;28;20038;-75
2022/07/13 12:16:11;;;;;;;0.20;0.20;;;25.90;99.90;;;;;;4965193;28;20043;-76
2022/07/13 12:19:01;;;;;;;0.45;0.32;;;25.80;99.90;;;;;;4945479;28;20053;-77
2022/07/13 12:21:27;;;;;;;0.38;0.30;;;25.70;99.90;;;;;;4951246;28;20132;-74
2022/07/13 12:23:53;;;;;;;0.30;0.30;;;25.60;99.90;;;;;;4965531;28;20078;-73
2022/07/13 12:26:19;;;;;;;0.30;0.30;;;25.50;99.90;;;;;;4958579;28;20130;-74
2022/07/13 12:28:45;;;;;;;0.60;0.60;;;25.30;99.90;;;;;;4958065;28;20050;-76
2022/07/13 12:31:10;;;;;;;0.50;0.50;;;25.20;99.90;;;;;;4944741;28;20039;-75
2022/07/13 12:33:47;;;;;;;0.70;0.70;;;25.10;99.90;;;;;;4957110;28;20381;-75
2022/07/13 12:36:15;;;;;;;0.32;0.25;;;25.00;99.90;;;;;;4937834;28;20450;-75
2022/07/13 12:39:11;;;;;;;0.80;0.80;;;25.00;99.90;;;;;;4958738;28;20058;-74
2022/07/13 12:41:41;;;;;;;0.60;0.60;;;25.00;99.90;;;;;;4949997;28;20058;-74
2022/07/13 12:44:08;;;;;;;0.43;0.43;;;24.90;99.90;;;;;;4949584;28;20086;-74
2022/07/13 12:46:50;;;;;;;0.50;0.50;;;24.90;99.90;;;;;;4948328;28;20059;-74
2022/07/13 12:49:17;;;;;;;0.75;0.55;;;24.90;99.90;;;;;;4948566;28;20090;-74
2022/07/13 12:51:46;;;;;;;0.43;0.38;;;25.00;99.90;;;;;;4949621;28;20039;-76
2022/07/13 12:54:12;;;;;;;0.30;0.30;;;24.80;99.90;;;;;;4958779;28;20077;-74
2022/07/13 12:56:52;;;;;;;0.20;0.20;;;24.70;99.90;;;;;;4953515;28;20035;-75
2022/07/13 12:59:20;;;;;;;0.17;0.17;;;24.90;99.90;;;;;;4964558;28;20378;-74
2022/07/13 13:01:47;;;;;;;0.25;0.25;;;25.00;99.90;;;;;;4954253;28;20070;-75
2022/07/13 13:04:16;;;;;;;0.20;0.20;;;25.20;99.90;;;;;;4946972;28;20090;-75
2022/07/13 13:06:44;;;;;;;0.60;0.60;;;25.40;99.90;;;;;;4951371;28;20054;-75
2022/07/13 13:09:17;;;;;;;0.77;0.57;;;25.50;99.90;;;;;;4953508;28;20062;-75